»·PEaware :: WAT169 KLAS-KSNA

WAT169 :: KLAS-KSNA

FLIGHT INFORMATION

Flight Status: Arrived
Operator:
Walker Air Transport
More flights by this operator :: More flights under this callsign
Pilot: Marty P. (27464)
Aircraft: BOEING 737-800
(B738)
More flights by this aircraft type
Origin: KLAS McCarran Intl
United States
Destination: KSNA John Wayne-Orange Co
United States
More flights between these airports :: More routes between these airports
Route: BOACH8 WHIGG FEYLA DSNEE4
File this flight plan on PilotEdge
Remarks:
Altitude:
(Current/Filed)
28,000ft
Speed:
(Current/Filed)
480kts
Departed: 25-Oct-20 08:19 PM
Arrived: 25-Oct-20 08:59 PM
Distance/Time
Traveled:
197nm/0:40
Distance/Time
To Go:
Arrived

Flight Plot

Page will automatically refresh every two minutes.

Flight plan parsing failed; only flown route is shown


Map Options




Map Legend


Flown Route
Filed Route
Departure Airport
Arrival Airport
Navaid (VOR, NDB)
Fix

Horizontal Profiles

Position Reports

Time Latitude Longitude Heading Altitude Ground
Speed
25-Oct-20 20:07 36.081005 -115.147687 66 2099ft 0kts
25-Oct-20 20:08 36.081005 -115.147688 66 2099ft 0kts
25-Oct-20 20:09 36.080987 -115.147736 77 2099ft 1kts
25-Oct-20 20:10 36.081110 -115.148421 130 2102ft 2kts
25-Oct-20 20:11 36.081350 -115.148637 156 2102ft 0kts
25-Oct-20 20:12 36.081286 -115.148601 156 2102ft 3kts
25-Oct-20 20:13 36.079230 -115.147468 155 2101ft 16kts
25-Oct-20 20:14 36.078267 -115.140879 89 2082ft 33kts
25-Oct-20 20:15 36.078270 -115.131719 89 2056ft 21kts
25-Oct-20 20:16 36.078274 -115.123183 90 2040ft 22kts
25-Oct-20 20:17 36.077445 -115.121478 142 2039ft 3kts
25-Oct-20 20:18 36.076362 -115.135658 271 2072ft 152kts
25-Oct-20 20:20 36.077033 -115.200283 277 4111ft 227kts
25-Oct-20 20:21 36.041025 -115.269977 203 6990ft 285kts
25-Oct-20 20:22 35.965820 -115.301070 191 7759ft 301kts
25-Oct-20 20:23 35.884286 -115.311605 189 11694ft 313kts
25-Oct-20 20:24 35.785537 -115.306974 179 13782ft 381kts
25-Oct-20 20:25 35.679827 -115.315854 211 16581ft 386kts
25-Oct-20 20:26 35.599673 -115.400839 234 18930ft 393kts
25-Oct-20 20:27 35.525048 -115.500924 235 21544ft 399kts
25-Oct-20 20:28 35.449229 -115.603029 236 23640ft 412kts
25-Oct-20 20:29 35.370870 -115.708583 236 25574ft 423kts
25-Oct-20 20:30 35.290838 -115.816128 236 27358ft 431kts
25-Oct-20 20:31 35.207092 -115.927803 234 27901ft 467kts
25-Oct-20 20:32 35.112838 -116.046052 233 27900ft 502kts
25-Oct-20 20:33 35.013885 -116.170224 233 27901ft 520kts
25-Oct-20 20:34 34.912296 -116.297511 233 27915ft 526kts
25-Oct-20 20:35 34.810598 -116.425885 234 27917ft 525kts
25-Oct-20 20:35 34.726568 -116.532746 233 27070ft 521kts
25-Oct-20 20:37 34.610138 -116.654828 227 22714ft 437kts
25-Oct-20 20:37 34.535596 -116.728345 226 20422ft 390kts
25-Oct-20 20:39 34.445726 -116.827385 231 17876ft 366kts
25-Oct-20 20:39 34.385852 -116.896971 230 16525ft 353kts
25-Oct-20 20:40 34.315377 -116.978519 229 14512ft 350kts
25-Oct-20 20:41 34.241671 -117.052251 216 13174ft 351kts
25-Oct-20 20:42 34.159012 -117.109313 209 12027ft 338kts
25-Oct-20 20:44 34.056877 -117.163913 209 12018ft 343kts
25-Oct-20 20:44 33.988669 -117.210707 228 11499ft 334kts
25-Oct-20 20:45 33.929473 -117.289864 234 10244ft 303kts
25-Oct-20 20:46 33.880048 -117.359840 234 9297ft 250kts
25-Oct-20 20:47 33.836616 -117.421300 233 8350ft 238kts
25-Oct-20 20:48 33.807260 -117.489526 277 7482ft 225kts
25-Oct-20 20:49 33.824546 -117.555036 291 6318ft 179kts
25-Oct-20 20:50 33.841783 -117.611605 291 6052ft 185kts
25-Oct-20 20:51 33.859848 -117.669070 291 5207ft 180kts
25-Oct-20 20:52 33.866612 -117.728198 233 3325ft 200kts
25-Oct-20 20:53 33.829166 -117.770653 216 3009ft 181kts
25-Oct-20 20:54 33.784506 -117.799762 208 2369ft 181kts
25-Oct-20 20:55 33.741759 -117.826932 207 1411ft 152kts
25-Oct-20 20:56 33.704579 -117.850515 207 603ft 150kts
25-Oct-20 20:57 33.671419 -117.871550 207 66ft 50kts
25-Oct-20 20:58 33.669678 -117.870350 40 66ft 17kts
25-Oct-20 20:59 33.674914 -117.865966 27 66ft 22kts

Navigation Log

Ident Type
Flight plan parsing failed, navigation log unavailable